ADDS METAR Data INFO
IDs: Format: Raw Decoded Include TAF

Data at: 0645 UTC 23 Feb 2018

KDBN 230635Z AUTO 00000KT 10SM CLR 15/15 A3042 RMK AO2
KDBN 230615Z AUTO 00000KT 10SM CLR 16/15 A3042 RMK AO2
KDBN 230555Z AUTO 18004KT 10SM CLR 16/16 A3042 RMK AO2
KDBN 230535Z AUTO 17004KT 10SM CLR 17/16 A3043 RMK AO2
KDBN 230515Z AUTO 17005KT 10SM CLR 17/16 A3043 RMK AO2
KDBN 230455Z AUTO 16005KT 10SM CLR 18/16 A3043 RMK AO2
KDBN 230435Z AUTO 16005KT 10SM CLR 18/16 A3043 RMK AO2
KDBN 230415Z AUTO 18007KT 10SM CLR 18/16 A3043 RMK AO2
KDBN 230355Z AUTO 17006KT 10SM CLR 18/16 A3044 RMK AO2
KDBN 230335Z AUTO 16007KT 10SM CLR 17/16 A3044 RMK AO2
KDBN 230315Z AUTO 00000KT 10SM CLR 15/14 A3043 RMK AO2
KDBN 230255Z AUTO 00000KT 10SM CLR 16/15 A3043 RMK AO2
KDBN 230235Z AUTO 00000KT 10SM CLR 16/15 A3043 RMK AO2
KDBN 230215Z AUTO 00000KT 10SM CLR 16/15 A3043 RMK AO2
KDBN 230155Z AUTO 00000KT 10SM CLR 16/16 A3042 RMK AO2
KDBN 230135Z AUTO 00000KT 10SM CLR 16/16 A3042 RMK AO2
KDBN 230115Z AUTO 00000KT 10SM CLR 17/16 A3042 RMK AO2
KDBN 230055Z AUTO 00000KT 10SM CLR 17/16 A3041 RMK AO2
KDBN 230035Z AUTO 00000KT 10SM CLR 18/16 A3041 RMK AO2
KDBN 230015Z AUTO 00000KT 7SM CLR 19/16 A3040 RMK AO2
KDBN 222355Z AUTO 00000KT 10SM SCT055 20/16 A3040 RMK AO2
KDBN 222335Z AUTO 00000KT 10SM BKN055 21/16 A3040 RMK AO2
KDBN 222315Z AUTO 00000KT 10SM OVC055 23/16 A3040 RMK AO2
KDBN 222255Z AUTO 00000KT 10SM OVC055 25/16 A3040 RMK AO2
KDBN 222235Z AUTO 16003KT 10SM BKN055 25/15 A3040 RMK AO2
KDBN 222215Z AUTO 15004KT 10SM SCT055 26/16 A3040 RMK AO2
KDBN 222155Z AUTO 15005KT 10SM BKN055 26/16 A3040 RMK AO2
KDBN 222135Z AUTO 20006KT 10SM BKN055 27/15 A3040 RMK AO2
KDBN 222115Z AUTO 18005KT 10SM OVC055 27/14 A3039 RMK AO2
KDBN 222055Z AUTO 18005KT 10SM BKN055 27/15 A3040 RMK AO2
KDBN 222035Z AUTO 21003KT 10SM BKN055 26/16 A3040 RMK AO2
KDBN 222015Z AUTO 19004KT 10SM OVC055 26/16 A3041 RMK AO2
KDBN 221955Z AUTO 23003KT 10SM OVC055 26/16 A3042 RMK AO2
KDBN 221935Z AUTO 20003KT 10SM SCT031 OVC055 25/16 A3043 RMK AO2
KDBN 221915Z AUTO 17004KT 10SM SCT031 OVC049 25/16 A3044 RMK AO2
KDBN 221855Z AUTO 21004KT 10SM OVC049 25/16 A3044 RMK AO2
KDBN 221835Z AUTO 16003KT 10SM OVC049 25/16 A3045 RMK AO2
KDBN 221815Z AUTO 17006KT 10SM OVC047 24/16 A3046 RMK AO2
KDBN 221755Z AUTO 17005KT 10SM SCT030 OVC045 24/16 A3047 RMK AO2
KDBN 221735Z AUTO 20004KT 10SM SCT028 OVC042 24/16 A3048 RMK AO2
KDBN 221715Z AUTO 20007KT 10SM BKN028 OVC037 24/17 A3048 RMK AO2
KDBN 221655Z AUTO 16007KT 10SM BKN026 OVC032 23/17 A3049 RMK AO2
KDBN 221635Z AUTO 20006KT 10SM BKN025 OVC031 24/17 A3049 RMK AO2
KDBN 221615Z AUTO 20007KT 10SM OVC025 23/17 A3050 RMK AO2
KDBN 221555Z AUTO 19008KT 10SM OVC023 24/17 A3050 RMK AO2
KDBN 221535Z AUTO 17008KT 10SM BKN019 OVC050 23/17 A3050 RMK AO2
KDBN 221515Z AUTO 19006KT 10SM BKN019 OVC050 22/17 A3050 RMK AO2
KDBN 221455Z AUTO 17008KT 10SM BKN017 OVC049 22/17 A3050 RMK AO2 LTG DSNT W
KDBN 221435Z AUTO 17004KT 10SM SCT015 SCT038 OVC049 22/18 A3050 RMK AO2
KDBN 221415Z AUTO 17005KT 10SM SCT015 SCT022 OVC049 21/17 A3050 RMK AO2
KDBN 221355Z AUTO 19006KT 10SM BKN020 OVC049 21/18 A3049 RMK AO2
KDBN 221335Z AUTO 17003KT 10SM OVC020 20/18 A3049 RMK AO2 LTG DSNT W
KDBN 221315Z AUTO 00000KT 10SM OVC020 20/18 A3048 RMK AO2
KDBN 221255Z AUTO 00000KT 10SM OVC020 20/18 A3047 RMK AO2
KDBN 221235Z AUTO 00000KT 10SM OVC020 20/18 A3047 RMK AO2
KDBN 221215Z AUTO 16003KT 10SM OVC020 20/18 A3047 RMK AO2
KDBN 221155Z AUTO 15004KT 10SM OVC020 20/18 A3046 RMK AO2 LTG DSNT W
KDBN 221135Z AUTO 15004KT 10SM OVC018 19/18 A3046 RMK AO2
KDBN 221115Z AUTO 00000KT 10SM OVC018 19/18 A3045 RMK AO2
KDBN 221055Z AUTO 00000KT 10SM OVC018 19/18 A3045 RMK AO2
KDBN 221035Z AUTO 00000KT 10SM OVC018 19/18 A3044 RMK AO2
KDBN 221015Z AUTO 00000KT 10SM SCT012 OVC018 19/18 A3043 RMK AO2
KDBN 220955Z AUTO 00000KT 10SM OVC016 19/18 A3043 RMK AO2
KDBN 220935Z AUTO 15004KT 10SM OVC018 19/18 A3042 RMK AO2
KDBN 220915Z AUTO 00000KT 10SM OVC018 19/18 A3042 RMK AO2
KDBN 220855Z AUTO 16003KT 10SM OVC016 19/18 A3042 RMK AO2
KDBN 220835Z AUTO 00000KT 10SM OVC014 19/18 A3042 RMK AO2
KDBN 220815Z AUTO 15004KT 10SM OVC014 19/18 A3042 RMK AO2
KDBN 220755Z AUTO 17004KT 10SM OVC012 19/18 A3042 RMK AO2
KDBN 220735Z AUTO 18003KT 10SM OVC012 19/18 A3043 RMK AO2
KDBN 220715Z AUTO 00000KT 10SM OVC010 18/18 A3043 RMK AO2
KDBN 220655Z AUTO 00000KT 10SM OVC012 18/17 A3043 RMK AO2
KDBN 220635Z AUTO 16003KT 10SM BKN012 18/17 A3043 RMK AO2
KDBN 220615Z AUTO 16004KT 10SM CLR 18/18 A3043 RMK AO2
KDBN 220555Z AUTO 17004KT 10SM CLR 18/18 A3042 RMK AO2
KDBN 220535Z AUTO 17005KT 10SM CLR 19/17 A3042 RMK AO2
KDBN 220515Z AUTO 16006KT 10SM CLR 19/17 A3042 RMK AO2
KDBN 220455Z AUTO 16007KT 10SM CLR 20/17 A3042 RMK AO2
KDBN 220435Z AUTO 16007KT 10SM CLR 20/17 A3042 RMK AO2
KDBN 220415Z AUTO 16007KT 10SM CLR 20/17 A3042 RMK AO2
KDBN 220355Z AUTO 17008KT 10SM CLR 21/17 A3042 RMK AO2
KDBN 220035Z AUTO 00000KT 10SM CLR 21/17 A3039 RMK AO2
KDBN 220015Z AUTO 00000KT 10SM CLR 22/16 A3038 RMK AO2
KDBN 212355Z AUTO 16003KT 10SM CLR 22/16 A3037 RMK AO2
KDBN 212335Z AUTO 15003KT 10SM CLR 23/16 A3037 RMK AO2
KDBN 212315Z AUTO 15005KT 10SM CLR 25/16 A3036 RMK AO2
KDBN 212255Z AUTO 16006KT 10SM CLR 26/16 A3036 RMK AO2
KDBN 212235Z AUTO 19004KT 10SM CLR 26/16 A3036 RMK AO2
KDBN 212215Z AUTO 18008KT 10SM SCT080 28/16 A3035 RMK AO2
KDBN 212155Z AUTO 21004KT 10SM BKN080 28/16 A3035 RMK AO2
KDBN 212135Z AUTO 18006KT 10SM SCT048 SCT050 BKN080 28/16 A3036 RMK AO2
KDBN 212115Z AUTO 13006KT 10SM SCT050 SCT055 SCT070 29/16 A3035 RMK AO2
KDBN 212055Z AUTO 18008KT 10SM SCT048 SCT060 BKN080 29/16 A3036 RMK AO2
KDBN 212035Z AUTO 20003KT 10SM BKN048 BKN070 OVC080 28/16 A3037 RMK AO2
KDBN 212015Z AUTO 16004KT 10SM SCT048 SCT060 BKN080 27/16 A3037 RMK AO2
KDBN 211955Z AUTO 22003KT 10SM SCT070 28/16 A3037 RMK AO2
KDBN 211935Z AUTO 20005KT 10SM SCT070 SCT080 29/17 A3038 RMK AO2
KDBN 211915Z AUTO 00000KT 10SM SCT060 BKN070 27/17 A3039 RMK AO2
KDBN 211855Z AUTO 15004KT 10SM SCT060 OVC070 27/18 A3040 RMK AO2